TAF Text Data
IDs:
Format:
Raw Decoded Include METAR

Data at: 1811 UTC 23 Jan 2019

TAF AMD ETSI 231601Z 2315/2324 07006KT 2500 SN SCT010 BKN012 OVC020
  TEMPO 2315/2318 07009KT 5000 -SN SCT012 BKN020 OVC060
  BECMG 2318/2320 07003KT 2000 SN OVC004 CANCEL 1720